Springville, NY (14141)

4:50 AM EDT on August 20, 2014 (GMT -0400)
Top of Zoar Valley | Change Station
CLOSE
Current Station
Personal Weather Station
Location: Springville, NY
Elevation: 1427 ft
Nearby Weather Stations

Elev 1427 ft 42.50 °N, 78.78 °W | Updated 6 seconds ago

Mostly Cloudy
Mostly Cloudy
67.1 °F
Feels Like 67.1 °F
N
1.6
Wind Variable Wind from East
Gusts 4.5 mph

Today
High -- | Low -- °F
--% Chance of Precip.
Yesterday
High -- | Low -- °F
Precip. -- in
6:26 AM 8:08 PM
Waning Crescent, 23% visible
Pressure 29.92 in
Visibility 2.5 miles
Clouds Mostly Cloudy 200 ft
Mostly Cloudy 500 ft
Dew Point 67 °F
Humidity 99%
Rainfall 0.00 in
Snow Depth Not available.
UV 0 out of 12
Pollen 9.60 out of 12
PM2.5 Good
Flu Activity Not available.
METAR KOLE 200835Z AUTO 19006KT 2 1/2SM BR BKN002 BKN005 17/17 A2992 RMK AO2 LTG DSNT SW

More Conditions Fewer Conditions

Pressure 29.92 in
Visibility 2.5 miles
Clouds Mostly Cloudy 200 ft
Mostly Cloudy 500 ft
Dew Point 67 °F
Humidity 99%
Rainfall 0.00 in
Snow Depth Not available.
UV 0 out of 12
Pollen 9.60 out of 12
PM2.5 Good
Flu Activity Not available.
METAR KOLE 200835Z AUTO 19006KT 2 1/2SM BR BKN002 BKN005 17/17 A2992 RMK AO2 LTG DSNT SW

More Conditions Fewer Conditions

10-Day Weather Forecast

Almanac

Astronomy

Aug. 20, 2014 Rise Set
Actual Time 6:26 AM EDT 8:08 PM EDT
Civil Twilight 5:57 AM EDT 8:38 PM EDT
Nautical Twilight 5:20 AM EDT 9:14 PM EDT
Astronomical Twilight 4:41 AM EDT 9:53 PM EDT
Moon 2:03 AM EDT 4:54 PM EDT
Length of Visible Light 14h 41m
Length of Day
13h 41m
Tomorrow will be 2m 37s shorter.
Waning Crescent, 23% of the Moon is Illuminated
Today
Waning Crescent
Aug 25
New
Sep 2
First Quarter
Sep 8
Full
Sep 15
Last Quarter

Today's Extremes

State Highs State Lows

Community

WunderPhotos

Upload Photos

1,745,600 photos uploaded!

Nearby

Air Quality

  Air Quality AQ Index Pollutant
Yesterday Good
OZONE
Yesterday Good
PM2.5
Current Good
PM2.5
Wednesday Good
PM2.5
Wednesday Good
OZONE

Snow Depth

Station Depth Elevation
No new snow has been reported.

Earthquake Activity

City Distance Mag. Time & Date
No recent earthquake activity has been reported nearby.
Minimum magnitude displayed is 2.5.

Coastal Water Temperatures

Place Temperature
Buffalo, NY 71.1 °F

Nearby Weather Stations